Time;durP1;ratioP1;P1;durP2;ratioP2;P2;SDS_P1;SDS_P2;PMS_P1;PMS_P2;Temp;Humidity;BMP_temperature;BMP_pressure;BME280_temperature;BME280_humidity;BME280_pressure;Samples;Min_cycle;Max_cycle;Signal;HPM_P1;HPM_P2
2023/05/13 00:02:24;;;;;;;5.63;5.22;;;7.70;92.60;;;;;;4957117;28;20050;-60
2023/05/13 00:04:51;;;;;;;6.80;6.10;;;7.70;92.60;;;;;;4954641;28;20058;-66
2023/05/13 00:07:17;;;;;;;6.03;5.40;;;7.60;92.60;;;;;;4956285;28;20054;-71
2023/05/13 00:09:44;;;;;;;5.90;5.40;;;7.60;92.60;;;;;;4955560;28;20053;-61
2023/05/13 00:12:11;;;;;;;6.55;5.20;;;7.60;92.40;;;;;;4955035;28;20494;-65
2023/05/13 00:14:38;;;;;;;6.78;5.97;;;7.70;92.30;;;;;;4953567;28;20098;-72
2023/05/13 00:17:05;;;;;;;5.85;5.22;;;7.70;91.90;;;;;;4956865;28;20047;-64
2023/05/13 00:19:32;;;;;;;6.00;5.40;;;7.70;91.90;;;;;;4956399;28;20161;-62
2023/05/13 00:21:59;;;;;;;6.35;5.60;;;7.80;92.50;;;;;;4958843;28;20075;-74
2023/05/13 00:24:26;;;;;;;6.82;6.22;;;7.80;92.60;;;;;;4965279;28;20051;-65
2023/05/13 00:26:53;;;;;;;7.03;5.95;;;7.80;93.00;;;;;;4956033;28;20066;-63
2023/05/13 00:29:20;;;;;;;5.95;5.43;;;7.90;93.60;;;;;;4960819;28;20493;-70
2023/05/13 00:31:47;;;;;;;6.60;6.00;;;7.90;93.40;;;;;;4956053;28;20079;-63
2023/05/13 00:34:15;;;;;;;7.78;6.97;;;7.90;93.70;;;;;;4959181;28;20674;-62
2023/05/13 00:36:43;;;;;;;7.55;6.85;;;7.90;94.20;;;;;;4956857;28;20175;-70
2023/05/13 00:39:10;;;;;;;7.80;7.05;;;7.90;94.20;;;;;;4957995;28;20409;-64
2023/05/13 00:41:37;;;;;;;9.00;7.25;;;7.90;94.80;;;;;;4961157;28;20050;-64
2023/05/13 00:44:04;;;;;;;9.32;6.72;;;7.90;94.70;;;;;;4959969;28;20055;-72
2023/05/13 00:46:32;;;;;;;7.38;6.70;;;7.90;94.70;;;;;;4958798;28;20058;-63
2023/05/13 00:49:00;;;;;;;9.48;5.80;;;7.80;94.70;;;;;;4957657;28;20145;-62
2023/05/13 00:51:27;;;;;;;7.55;6.93;;;7.80;94.70;;;;;;4958595;28;20065;-67
2023/05/13 00:53:57;;;;;;;8.85;6.68;;;7.80;94.90;;;;;;4960256;28;20050;-67
2023/05/13 00:56:25;;;;;;;10.13;6.78;;;7.80;95.10;;;;;;4957380;28;20092;-64
2023/05/13 00:58:52;;;;;;;7.28;6.68;;;7.80;94.80;;;;;;4955805;28;20051;-68
2023/05/13 01:01:41;;;;;;;6.72;6.00;;;7.80;94.90;;;;;;4958900;28;20409;-63
2023/05/13 01:04:46;;;;;;;6.80;5.72;;;7.80;95.10;;;;;;4974001;28;20058;-62
2023/05/13 01:07:20;;;;;;;6.63;6.05;;;7.80;95.10;;;;;;4936219;28;20050;-67
2023/05/13 01:10:16;;;;;;;7.35;6.65;;;7.70;95.00;;;;;;4963450;28;20048;-71
2023/05/13 01:12:45;;;;;;;8.70;6.55;;;7.70;95.10;;;;;;4960322;28;20086;-63
2023/05/13 01:15:23;;;;;;;9.05;8.23;;;7.60;95.20;;;;;;4958514;28;20070;-62
2023/05/13 01:18:05;;;;;;;7.97;6.18;;;7.70;95.80;;;;;;4957815;28;20049;-64
2023/05/13 01:20:33;;;;;;;7.32;6.68;;;7.60;95.60;;;;;;4958286;28;20138;-62
2023/05/13 01:23:02;;;;;;;7.78;7.05;;;7.60;95.90;;;;;;4957131;28;20079;-62
2023/05/13 01:25:29;;;;;;;9.20;6.63;;;7.60;95.90;;;;;;4966241;28;20051;-64
2023/05/13 01:27:56;;;;;;;8.93;6.57;;;7.60;96.00;;;;;;4958144;28;20069;-63
2023/05/13 01:30:24;;;;;;;9.40;6.63;;;7.60;96.20;;;;;;4952929;28;20051;-64
2023/05/13 01:32:53;;;;;;;6.72;6.03;;;7.60;96.10;;;;;;4954968;28;20190;-62
2023/05/13 01:35:21;;;;;;;9.63;6.32;;;7.50;96.10;;;;;;4954873;28;20069;-62
2023/05/13 01:37:49;;;;;;;12.18;6.90;;;7.50;96.20;;;;;;4958938;28;20051;-71
2023/05/13 01:40:17;;;;;;;5.97;5.47;;;7.50;96.00;;;;;;4955024;28;20097;-64
2023/05/13 01:43:01;;;;;;;7.00;6.10;;;7.50;96.10;;;;;;4973720;28;20734;-64
2023/05/13 01:45:28;;;;;;;7.32;5.95;;;7.50;96.00;;;;;;4955610;28;20078;-63
2023/05/13 01:47:56;;;;;;;7.18;6.47;;;7.50;96.00;;;;;;4962042;28;20607;-63
2023/05/13 01:50:25;;;;;;;7.07;6.47;;;7.50;95.90;;;;;;4965348;28;20105;-63
2023/05/13 01:52:52;;;;;;;6.53;5.93;;;7.50;96.00;;;;;;4950493;28;20062;-65
2023/05/13 01:55:19;;;;;;;6.97;6.20;;;7.40;96.30;;;;;;4960052;28;20051;-66
2023/05/13 01:57:47;;;;;;;11.15;7.22;;;7.40;96.30;;;;;;4969444;28;20055;-64
2023/05/13 02:00:15;;;;;;;8.40;6.18;;;7.40;96.30;;;;;;4955527;28;20082;-63
2023/05/13 02:02:41;;;;;;;8.60;6.45;;;7.30;96.40;;;;;;4960072;28;20078;-62
2023/05/13 02:05:09;;;;;;;7.78;7.07;;;7.30;96.70;;;;;;4955026;28;20055;-74
2023/05/13 02:07:36;;;;;;;7.18;6.22;;;7.30;96.70;;;;;;4969425;28;20051;-62
2023/05/13 02:10:04;;;;;;;9.90;7.32;;;7.20;96.90;;;;;;4959242;28;20086;-61
2023/05/13 02:12:31;;;;;;;7.88;6.30;;;7.20;97.10;;;;;;4954117;28;20070;-65
2023/05/13 02:14:58;;;;;;;7.85;7.13;;;7.20;97.20;;;;;;4955483;28;20082;-61
2023/05/13 02:17:25;;;;;;;6.72;6.05;;;7.10;97.30;;;;;;4957129;28;20058;-63
2023/05/13 02:19:52;;;;;;;10.45;5.82;;;7.10;97.30;;;;;;4962043;28;20059;-65
2023/05/13 02:22:19;;;;;;;7.28;6.55;;;7.10;97.70;;;;;;4956880;28;20055;-69
2023/05/13 02:24:46;;;;;;;7.28;6.57;;;7.10;97.50;;;;;;4936882;28;20637;-68
2023/05/13 02:27:15;;;;;;;9.23;7.72;;;7.10;97.90;;;;;;4961045;28;20050;-63
2023/05/13 02:29:42;;;;;;;7.25;6.65;;;7.10;98.20;;;;;;4973390;28;20063;-66
2023/05/13 02:32:09;;;;;;;7.13;6.10;;;7.10;98.30;;;;;;4956301;28;20146;-64
2023/05/13 02:34:36;;;;;;;8.25;6.00;;;7.00;98.30;;;;;;4956621;28;20058;-66
2023/05/13 02:37:04;;;;;;;8.60;7.82;;;7.00;98.30;;;;;;4958627;28;20058;-65
2023/05/13 02:39:36;;;;;;;8.02;7.28;;;7.00;98.60;;;;;;4957802;28;20450;-61
2023/05/13 02:42:04;;;;;;;10.55;7.20;;;7.00;98.60;;;;;;4940983;28;20146;-69
2023/05/13 02:44:31;;;;;;;7.72;6.93;;;7.00;98.80;;;;;;4960213;28;20051;-63
2023/05/13 02:46:59;;;;;;;9.18;8.25;;;7.00;98.70;;;;;;4952333;28;20883;-62
2023/05/13 02:49:26;;;;;;;7.97;7.28;;;7.00;98.80;;;;;;4963999;28;20097;-65
2023/05/13 02:51:53;;;;;;;9.35;8.45;;;7.00;98.90;;;;;;4961886;28;20622;-66
2023/05/13 02:54:27;;;;;;;10.15;9.13;;;7.00;99.10;;;;;;4978609;28;20058;-63
2023/05/13 02:56:54;;;;;;;9.70;8.48;;;7.00;99.00;;;;;;4957973;28;20050;-64
2023/05/13 02:59:21;;;;;;;10.98;9.52;;;7.00;99.10;;;;;;4956213;28;20093;-63
2023/05/13 03:01:48;;;;;;;12.52;8.43;;;7.00;99.20;;;;;;4959577;28;20446;-64
2023/05/13 03:04:15;;;;;;;9.60;8.70;;;7.00;99.20;;;;;;4955873;28;20117;-62
2023/05/13 03:06:42;;;;;;;9.02;8.13;;;7.00;99.20;;;;;;4953977;28;20054;-66
2023/05/13 03:09:09;;;;;;;9.77;8.88;;;7.00;99.30;;;;;;4960526;28;20054;-68
2023/05/13 03:11:36;;;;;;;10.35;9.43;;;7.00;99.30;;;;;;4953048;28;20070;-63
2023/05/13 03:14:04;;;;;;;11.40;9.57;;;7.00;99.40;;;;;;4963125;28;20047;-65
2023/05/13 03:16:31;;;;;;;9.30;8.50;;;7.00;99.60;;;;;;4955540;28;20090;-69
2023/05/13 03:18:58;;;;;;;10.65;9.65;;;7.00;99.40;;;;;;4962125;28;20089;-63
2023/05/13 03:21:25;;;;;;;7.90;7.30;;;7.00;99.50;;;;;;4960058;28;20062;-61
2023/05/13 03:23:53;;;;;;;9.05;8.23;;;7.10;99.40;;;;;;4956765;28;20078;-73
2023/05/13 03:26:21;;;;;;;8.30;7.50;;;7.10;99.30;;;;;;4961260;28;20094;-66
2023/05/13 03:28:48;;;;;;;9.85;8.75;;;7.10;99.20;;;;;;4959495;28;20046;-71
2023/05/13 03:31:16;;;;;;;8.38;7.55;;;7.10;99.30;;;;;;4962527;28;20425;-63
2023/05/13 03:33:43;;;;;;;8.77;7.95;;;7.20;99.10;;;;;;4956079;28;20050;-67
2023/05/13 03:36:11;;;;;;;8.32;7.47;;;7.20;99.10;;;;;;4953425;28;20054;-62
2023/05/13 03:38:37;;;;;;;8.52;7.60;;;7.20;99.00;;;;;;4954568;28;20082;-63
2023/05/13 03:41:04;;;;;;;8.13;7.25;;;7.30;98.90;;;;;;4955929;28;20062;-66
2023/05/13 03:43:32;;;;;;;7.82;6.18;;;7.30;98.70;;;;;;4963608;28;20083;-63
2023/05/13 03:46:02;;;;;;;8.70;6.78;;;7.40;98.60;;;;;;4956413;28;20114;-66
2023/05/13 03:48:29;;;;;;;8.32;6.35;;;7.50;98.50;;;;;;4974361;28;20078;-64
2023/05/13 03:51:00;;;;;;;6.63;6.13;;;7.50;98.30;;;;;;4953036;28;20043;-65
2023/05/13 03:53:28;;;;;;;5.88;5.28;;;7.60;97.90;;;;;;4970919;28;20453;-60
2023/05/13 03:55:55;;;;;;;6.72;5.35;;;7.70;98.00;;;;;;4973552;28;20057;-60
2023/05/13 03:58:21;;;;;;;8.30;5.90;;;7.80;97.80;;;;;;4954156;28;20134;-67
2023/05/13 04:00:48;;;;;;;7.85;5.18;;;7.80;97.50;;;;;;4962604;28;20488;-60
2023/05/13 04:03:16;;;;;;;5.55;5.00;;;7.90;97.40;;;;;;4968191;28;20058;-61
2023/05/13 04:05:47;;;;;;;6.45;5.85;;;8.00;97.30;;;;;;4957855;28;20090;-62
2023/05/13 04:08:14;;;;;;;;;;;8.00;96.80;;;;;;4956699;28;20133;-60
2023/05/13 04:10:42;;;;;;;6.32;4.82;;;8.10;96.70;;;;;;4956562;28;19929;-61
2023/05/13 04:13:09;;;;;;;4.53;4.13;;;8.20;96.50;;;;;;4956906;28;20066;-60
2023/05/13 04:15:36;;;;;;;9.38;6.28;;;8.30;96.30;;;;;;4958052;28;20047;-62
2023/05/13 04:18:04;;;;;;;5.05;4.65;;;8.40;96.00;;;;;;4968680;28;20153;-63
2023/05/13 04:20:33;;;;;;;4.80;4.30;;;8.40;95.80;;;;;;4958883;28;20059;-62
2023/05/13 04:23:00;;;;;;;5.72;4.95;;;8.50;95.50;;;;;;4953381;28;20066;-63
2023/05/13 04:25:28;;;;;;;5.40;4.47;;;8.70;95.40;;;;;;4955084;28;20106;-60
2023/05/13 04:27:55;;;;;;;6.32;4.43;;;8.80;95.00;;;;;;4954618;28;20058;-63
2023/05/13 04:30:35;;;;;;;4.78;4.28;;;8.90;94.60;;;;;;4967939;28;20042;-63
2023/05/13 04:33:02;;;;;;;5.53;4.63;;;9.00;94.40;;;;;;4949621;28;20086;-62
2023/05/13 04:35:30;;;;;;;4.68;4.28;;;9.10;94.60;;;;;;4958271;28;20091;-67
2023/05/13 04:38:00;;;;;;;4.45;3.80;;;9.20;94.40;;;;;;4958940;28;20051;-73
2023/05/13 04:40:28;;;;;;;5.78;4.20;;;9.30;94.40;;;;;;4957163;28;20725;-62
2023/05/13 04:42:58;;;;;;;7.07;3.80;;;9.30;94.10;;;;;;4954106;28;20054;-63
2023/05/13 04:45:30;;;;;;;4.97;3.80;;;9.50;94.20;;;;;;4952413;28;20509;-62
2023/05/13 04:47:58;;;;;;;3.72;3.42;;;9.60;93.90;;;;;;4967665;28;20054;-74
2023/05/13 04:50:25;;;;;;;4.28;3.83;;;9.70;93.70;;;;;;4953619;28;20058;-64
2023/05/13 04:52:53;;;;;;;4.47;3.90;;;9.80;93.40;;;;;;4941398;28;20067;-65
2023/05/13 04:55:21;;;;;;;4.10;3.70;;;10.00;93.20;;;;;;4951767;28;20070;-67
2023/05/13 04:57:48;;;;;;;4.32;3.92;;;10.10;92.80;;;;;;4950253;28;20145;-65
2023/05/13 05:00:16;;;;;;;5.45;3.95;;;10.30;92.60;;;;;;4953153;28;20059;-66
2023/05/13 05:02:45;;;;;;;7.10;3.33;;;10.50;92.40;;;;;;4963621;28;20081;-61
2023/05/13 05:05:11;;;;;;;6.63;3.28;;;10.60;91.70;;;;;;4957820;28;20051;-61
2023/05/13 05:07:39;;;;;;;5.22;4.57;;;10.80;91.70;;;;;;4955903;28;20182;-67
2023/05/13 05:10:07;;;;;;;6.25;3.38;;;11.00;91.40;;;;;;4959858;28;20058;-62
2023/05/13 05:12:37;;;;;;;4.22;3.40;;;11.10;91.00;;;;;;4944314;28;20130;-70
2023/05/13 05:15:05;;;;;;;3.88;3.40;;;11.40;90.80;;;;;;4957700;28;20118;-65
2023/05/13 05:17:32;;;;;;;5.13;4.10;;;11.60;89.90;;;;;;4957049;28;20054;-65
2023/05/13 05:20:01;;;;;;;3.28;2.88;;;11.80;89.70;;;;;;4963541;28;20429;-66
2023/05/13 05:22:28;;;;;;;5.90;3.08;;;12.00;89.50;;;;;;4959474;28;20067;-67
2023/05/13 05:24:55;;;;;;;4.00;3.15;;;12.20;89.10;;;;;;4957253;28;20062;-61
2023/05/13 05:27:24;;;;;;;5.38;3.75;;;12.20;88.70;;;;;;4954332;28;20059;-63
2023/05/13 05:29:50;;;;;;;6.07;4.10;;;12.30;88.20;;;;;;4959769;28;20053;-63
2023/05/13 05:32:18;;;;;;;3.75;3.13;;;12.50;87.90;;;;;;4958949;28;20476;-64
2023/05/13 05:34:45;;;;;;;3.70;3.38;;;12.50;88.10;;;;;;4961207;28;20054;-61
2023/05/13 05:37:12;;;;;;;4.63;3.17;;;12.60;88.00;;;;;;4959197;28;20149;-70
2023/05/13 05:39:40;;;;;;;3.25;2.97;;;12.70;88.00;;;;;;4974508;28;20587;-64
2023/05/13 05:42:07;;;;;;;6.25;3.50;;;12.90;87.90;;;;;;4959650;28;20150;-63
2023/05/13 05:44:35;;;;;;;3.33;2.80;;;12.90;86.80;;;;;;4957621;28;20058;-67
2023/05/13 05:47:02;;;;;;;6.40;3.08;;;13.10;86.90;;;;;;4974679;28;20050;-66
2023/05/13 05:49:29;;;;;;;3.70;3.05;;;13.10;86.00;;;;;;4949995;28;20086;-61
2023/05/13 05:51:56;;;;;;;5.43;2.97;;;13.20;85.30;;;;;;4949590;28;20050;-61
2023/05/13 05:54:24;;;;;;;4.28;3.78;;;13.30;84.50;;;;;;4953019;28;20066;-66
2023/05/13 05:56:51;;;;;;;6.30;3.08;;;13.50;83.40;;;;;;4957132;28;20563;-70
2023/05/13 05:59:18;;;;;;;6.00;3.42;;;13.60;82.40;;;;;;4954225;28;20063;-60
2023/05/13 06:01:45;;;;;;;3.25;2.97;;;13.80;81.90;;;;;;4974344;28;20054;-62
2023/05/13 06:04:12;;;;;;;4.78;3.38;;;13.90;81.40;;;;;;4956105;28;20528;-64
2023/05/13 06:06:39;;;;;;;5.03;3.63;;;14.20;80.90;;;;;;4955606;28;20485;-64
2023/05/13 06:09:06;;;;;;;5.53;3.53;;;14.40;79.30;;;;;;4961787;28;20053;-64
2023/05/13 06:11:33;;;;;;;4.38;3.17;;;14.50;79.10;;;;;;4958143;28;20102;-62
2023/05/13 06:14:00;;;;;;;3.45;2.78;;;14.50;79.90;;;;;;4959780;28;20054;-66
2023/05/13 06:16:27;;;;;;;6.07;3.08;;;14.50;79.80;;;;;;4954172;28;20656;-66
2023/05/13 06:18:54;;;;;;;3.28;2.10;;;14.70;77.80;;;;;;4959555;28;20142;-63
2023/05/13 06:21:21;;;;;;;4.57;3.03;;;14.80;76.70;;;;;;4961503;28;20086;-64
2023/05/13 06:23:48;;;;;;;4.85;2.40;;;14.80;77.60;;;;;;4958527;28;20042;-68
2023/05/13 06:26:15;;;;;;;3.83;3.00;;;14.90;76.70;;;;;;4963841;28;20559;-61
2023/05/13 06:28:42;;;;;;;4.35;3.28;;;15.00;76.40;;;;;;4957934;28;20166;-66
2023/05/13 06:31:08;;;;;;;3.72;2.55;;;15.10;75.80;;;;;;4961253;28;20528;-63
2023/05/13 06:33:36;;;;;;;3.38;2.83;;;15.20;75.20;;;;;;4958123;28;20074;-61
2023/05/13 06:36:03;;;;;;;3.10;2.53;;;15.30;75.60;;;;;;4957817;28;20054;-61
2023/05/13 06:38:30;;;;;;;3.10;2.80;;;15.50;76.20;;;;;;4943390;28;21070;-65
2023/05/13 06:40:58;;;;;;;5.10;3.42;;;15.60;75.00;;;;;;4956389;28;20289;-60
2023/05/13 06:43:29;;;;;;;8.25;4.25;;;15.80;75.70;;;;;;4959165;28;20059;-62
2023/05/13 06:45:58;;;;;;;11.45;3.25;;;15.90;74.50;;;;;;4963416;28;20497;-62
2023/05/13 06:48:27;;;;;;;4.25;3.47;;;15.90;76.00;;;;;;4963105;28;20054;-63
2023/05/13 06:50:53;;;;;;;2.90;2.70;;;16.00;75.50;;;;;;4956415;28;20081;-61
2023/05/13 06:53:21;;;;;;;3.58;2.47;;;16.10;73.90;;;;;;4958808;28;20069;-62
2023/05/13 06:55:48;;;;;;;6.22;2.78;;;16.20;74.50;;;;;;4957060;28;20047;-61
2023/05/13 06:58:15;;;;;;;2.80;2.60;;;16.20;74.40;;;;;;4958119;28;20054;-61
2023/05/13 07:00:42;;;;;;;2.88;2.58;;;16.30;75.40;;;;;;4956278;28;20113;-63
2023/05/13 07:03:09;;;;;;;4.95;3.30;;;16.30;75.60;;;;;;4960636;28;20685;-65
2023/05/13 07:05:36;;;;;;;6.05;2.95;;;16.30;76.00;;;;;;4956295;28;20057;-64
2023/05/13 07:08:07;;;;;;;5.72;3.35;;;16.30;75.70;;;;;;4959715;28;20057;-63
2023/05/13 07:10:34;;;;;;;5.82;3.78;;;16.40;74.90;;;;;;4961821;28;20579;-65
2023/05/13 07:13:01;;;;;;;3.53;3.13;;;16.30;76.00;;;;;;4956763;28;20057;-71
2023/05/13 07:15:28;;;;;;;4.68;2.60;;;16.30;75.40;;;;;;4962118;28;20050;-61
2023/05/13 07:17:55;;;;;;;3.72;2.92;;;16.20;75.00;;;;;;4960439;28;20050;-65
2023/05/13 07:20:22;;;;;;;4.32;3.33;;;16.20;75.10;;;;;;4946840;28;20082;-65
2023/05/13 07:22:50;;;;;;;5.20;2.90;;;16.20;74.90;;;;;;4955108;28;20073;-61
2023/05/13 07:25:17;;;;;;;6.30;3.30;;;16.10;74.80;;;;;;4962920;28;20137;-63
2023/05/13 07:27:44;;;;;;;7.25;3.25;;;16.10;75.30;;;;;;4960023;28;20105;-63
2023/05/13 07:30:11;;;;;;;7.10;3.78;;;16.10;74.70;;;;;;4954452;28;20057;-61
2023/05/13 07:32:39;;;;;;;7.72;3.45;;;16.10;74.80;;;;;;4955731;28;20421;-62
2023/05/13 07:35:06;;;;;;;6.93;3.60;;;16.10;75.40;;;;;;4957873;28;20433;-61
2023/05/13 07:37:33;;;;;;;6.88;3.05;;;16.20;74.90;;;;;;4959240;28;20133;-64
2023/05/13 07:40:00;;;;;;;6.72;3.85;;;16.30;74.90;;;;;;4958496;28;20047;-69
2023/05/13 07:42:28;;;;;;;3.92;3.63;;;16.30;75.10;;;;;;4954210;28;20524;-66
2023/05/13 07:44:55;;;;;;;4.78;3.55;;;16.40;75.30;;;;;;4959120;28;20195;-64
2023/05/13 07:47:22;;;;;;;5.95;3.33;;;16.50;74.50;;;;;;4961146;28;20059;-62
2023/05/13 07:49:49;;;;;;;6.10;4.65;;;16.50;73.80;;;;;;4959579;28;20039;-64
2023/05/13 07:52:16;;;;;;;4.50;2.97;;;16.40;74.50;;;;;;4961089;28;20070;-66
2023/05/13 07:54:43;;;;;;;6.30;3.78;;;16.40;74.30;;;;;;4961926;28;20174;-61
2023/05/13 07:57:10;;;;;;;5.82;4.38;;;16.40;75.00;;;;;;4958107;28;20414;-65
2023/05/13 07:59:37;;;;;;;3.63;3.33;;;16.40;74.20;;;;;;4951397;28;20081;-65
2023/05/13 08:02:04;;;;;;;6.22;3.50;;;16.30;74.40;;;;;;4953849;28;20050;-62
2023/05/13 08:04:31;;;;;;;4.28;3.53;;;16.30;74.30;;;;;;4955923;28;20081;-70
2023/05/13 08:06:59;;;;;;;4.20;3.83;;;16.40;74.20;;;;;;4957435;28;20047;-68
2023/05/13 08:09:26;;;;;;;4.95;3.28;;;16.60;74.50;;;;;;4961584;28;20062;-63
2023/05/13 08:11:53;;;;;;;4.40;4.00;;;16.50;74.70;;;;;;4955741;28;20092;-64
2023/05/13 08:14:20;;;;;;;4.57;4.15;;;16.50;74.40;;;;;;4959833;28;20529;-60
2023/05/13 08:16:47;;;;;;;6.85;3.47;;;16.60;73.70;;;;;;4956461;28;20520;-67
2023/05/13 08:19:15;;;;;;;9.05;3.70;;;16.60;74.20;;;;;;4954350;28;20417;-63
2023/05/13 08:21:42;;;;;;;4.32;3.95;;;16.70;74.20;;;;;;4960914;28;20050;-62
2023/05/13 08:24:09;;;;;;;5.55;3.55;;;16.70;75.50;;;;;;4961585;28;20047;-61
2023/05/13 08:26:36;;;;;;;9.05;3.72;;;16.70;73.90;;;;;;4953744;28;20057;-63
2023/05/13 08:29:03;;;;;;;5.07;3.20;;;16.80;75.00;;;;;;4961282;28;20150;-61
2023/05/13 08:31:31;;;;;;;5.47;3.55;;;16.80;73.90;;;;;;4959221;28;20058;-73
2023/05/13 08:33:58;;;;;;;5.63;3.55;;;16.80;74.40;;;;;;4951867;28;20423;-66
2023/05/13 08:36:25;;;;;;;5.28;3.17;;;16.90;74.20;;;;;;4961484;28;20047;-71
2023/05/13 08:38:52;;;;;;;4.13;3.03;;;16.80;73.70;;;;;;4958526;28;20062;-69
2023/05/13 08:41:19;;;;;;;4.85;3.85;;;16.90;73.80;;;;;;4962593;28;20065;-63
2023/05/13 08:43:50;;;;;;;7.38;3.75;;;16.70;73.50;;;;;;4959941;28;20051;-69
2023/05/13 08:46:18;;;;;;;6.22;3.85;;;16.70;74.10;;;;;;4959797;28;20055;-71
2023/05/13 08:48:45;;;;;;;5.25;3.92;;;16.80;74.00;;;;;;4963727;28;20043;-77
2023/05/13 08:51:13;;;;;;;4.70;4.28;;;16.80;73.40;;;;;;4958275;28;21000;-75
2023/05/13 08:53:41;;;;;;;10.10;3.95;;;16.80;73.60;;;;;;4963128;28;20054;-74
2023/05/13 08:56:08;;;;;;;6.82;3.38;;;16.70;73.20;;;;;;4959578;28;20059;-74
2023/05/13 08:58:35;;;;;;;5.10;3.45;;;16.70;73.60;;;;;;4946207;28;20052;-69
2023/05/13 09:01:04;;;;;;;4.30;3.13;;;16.80;73.70;;;;;;4958450;28;20054;-68
2023/05/13 09:03:31;;;;;;;5.05;4.05;;;16.60;73.50;;;;;;4950998;28;20085;-74
2023/05/13 09:06:01;;;;;;;7.80;4.65;;;16.50;73.00;;;;;;4959585;28;20685;-63
2023/05/13 09:08:29;;;;;;;5.70;4.38;;;16.50;74.10;;;;;;4959778;28;20095;-62
2023/05/13 09:10:56;;;;;;;4.68;3.15;;;16.40;73.70;;;;;;4958541;28;20065;-63
2023/05/13 09:13:23;;;;;;;6.65;3.67;;;16.50;74.70;;;;;;4963568;28;20146;-66
2023/05/13 09:15:50;;;;;;;5.90;3.70;;;16.70;73.40;;;;;;4966940;28;20050;-75
2023/05/13 09:18:18;;;;;;;4.28;3.72;;;16.60;74.50;;;;;;4968337;28;20070;-71
2023/05/13 09:20:45;;;;;;;7.90;3.33;;;16.60;74.50;;;;;;4951249;28;20055;-70
2023/05/13 09:23:14;;;;;;;4.35;3.95;;;16.60;74.00;;;;;;4962717;28;20075;-65
2023/05/13 09:25:42;;;;;;;5.95;3.70;;;16.70;73.80;;;;;;4966925;28;20477;-63
2023/05/13 09:28:13;;;;;;;5.53;2.63;;;16.90;73.00;;;;;;4966515;28;20050;-72
2023/05/13 09:30:44;;;;;;;5.65;3.53;;;17.00;72.30;;;;;;4971322;28;20054;-65
2023/05/13 09:33:18;;;;;;;4.45;3.40;;;17.10;73.20;;;;;;4969942;28;20080;-61
2023/05/13 09:35:53;;;;;;;4.25;3.38;;;17.20;73.50;;;;;;4956750;28;20149;-68
2023/05/13 09:38:30;;;;;;;9.00;3.45;;;17.20;73.50;;;;;;4957607;28;20058;-63
2023/05/13 09:40:59;;;;;;;11.98;3.88;;;17.10;73.70;;;;;;4962921;28;20059;-62
2023/05/13 09:43:30;;;;;;;5.15;3.80;;;17.10;74.10;;;;;;4961181;28;20051;-70
2023/05/13 09:46:02;;;;;;;5.32;3.60;;;17.10;72.50;;;;;;4974924;28;20074;-62
2023/05/13 09:48:32;;;;;;;8.80;3.45;;;16.90;73.90;;;;;;4974636;28;20057;-60
2023/05/13 09:50:59;;;;;;;6.32;3.17;;;16.90;74.90;;;;;;4963386;28;20062;-67
2023/05/13 09:53:27;;;;;;;3.55;3.13;;;16.90;74.70;;;;;;4967025;28;20063;-60
2023/05/13 09:55:56;;;;;;;4.20;3.17;;;16.90;74.00;;;;;;4958918;28;20082;-63
2023/05/13 09:58:24;;;;;;;11.73;3.78;;;16.80;74.00;;;;;;4956011;28;20097;-62
2023/05/13 10:00:51;;;;;;;4.15;2.88;;;17.00;74.50;;;;;;4957012;28;20131;-62
2023/05/13 10:03:18;;;;;;;5.18;3.03;;;17.20;74.40;;;;;;4957776;28;20130;-69
2023/05/13 10:05:47;;;;;;;4.30;3.90;;;17.30;74.90;;;;;;4969134;28;20133;-59
2023/05/13 10:08:16;;;;;;;3.85;3.55;;;17.20;74.50;;;;;;4963290;28;20467;-59
2023/05/13 10:10:44;;;;;;;5.72;3.30;;;17.10;74.20;;;;;;4957422;28;20146;-71
2023/05/13 10:13:14;;;;;;;5.32;3.92;;;17.10;75.40;;;;;;4962816;28;20051;-63
2023/05/13 10:15:50;;;;;;;6.07;4.40;;;17.10;75.70;;;;;;4966286;28;20090;-62
2023/05/13 10:18:18;;;;;;;5.72;3.92;;;17.10;75.80;;;;;;4968355;28;20299;-62
2023/05/13 10:20:46;;;;;;;9.05;5.70;;;17.00;75.20;;;;;;4963964;28;20098;-62
2023/05/13 10:23:13;;;;;;;4.28;3.90;;;16.90;75.60;;;;;;4962974;28;20414;-69
2023/05/13 10:25:41;;;;;;;5.63;3.70;;;17.00;76.00;;;;;;4962190;28;20053;-65
2023/05/13 10:28:09;;;;;;;6.53;3.33;;;17.10;75.20;;;;;;4958497;28;20516;-63
2023/05/13 10:30:37;;;;;;;8.23;3.92;;;17.10;75.60;;;;;;4959727;28;20070;-60
2023/05/13 10:33:04;;;;;;;8.43;3.85;;;17.20;75.00;;;;;;4955270;28;20101;-60
2023/05/13 10:35:35;;;;;;;4.43;3.25;;;17.10;73.90;;;;;;4963106;28;20055;-60
2023/05/13 10:38:16;;;;;;;4.43;3.53;;;17.10;74.60;;;;;;4962501;28;20102;-65
2023/05/13 10:41:00;;;;;;;8.15;4.43;;;17.10;74.70;;;;;;4961082;28;20046;-73
2023/05/13 10:43:28;;;;;;;5.40;3.97;;;17.10;73.90;;;;;;4966495;28;20050;-66
2023/05/13 10:45:58;;;;;;;3.88;3.58;;;16.90;74.10;;;;;;4959417;28;20062;-62
2023/05/13 10:48:36;;;;;;;4.18;3.22;;;17.00;75.90;;;;;;4965654;28;20083;-65
2023/05/13 10:51:07;;;;;;;4.38;3.20;;;17.10;74.10;;;;;;4960986;28;20054;-65
2023/05/13 10:53:43;;;;;;;6.93;3.45;;;17.30;75.00;;;;;;4956171;28;20062;-67
2023/05/13 10:56:10;;;;;;;6.03;3.13;;;17.30;75.60;;;;;;4958186;28;20066;-71
2023/05/13 10:58:38;;;;;;;20.98;4.72;;;17.20;74.40;;;;;;4960930;28;20121;-62
2023/05/13 11:01:15;;;;;;;3.92;3.53;;;17.40;74.60;;;;;;4962288;28;20142;-65
2023/05/13 11:03:53;;;;;;;5.75;3.75;;;17.30;74.30;;;;;;4963362;28;20525;-61
2023/05/13 11:06:25;;;;;;;5.25;4.03;;;16.90;75.70;;;;;;4957280;28;20055;-62
2023/05/13 11:08:52;;;;;;;5.78;4.05;;;16.50;76.50;;;;;;4961196;28;20067;-65
2023/05/13 11:11:23;;;;;;;9.38;3.38;;;16.80;78.00;;;;;;4964711;28;20062;-63
2023/05/13 11:13:52;;;;;;;4.50;3.90;;;17.00;78.00;;;;;;4963532;28;21356;-66
2023/05/13 11:16:21;;;;;;;11.32;4.07;;;17.10;75.90;;;;;;4964411;28;20556;-61
2023/05/13 11:18:50;;;;;;;3.97;3.60;;;17.30;75.00;;;;;;4958962;28;20059;-62
2023/05/13 11:21:28;;;;;;;7.35;4.22;;;17.40;75.20;;;;;;4948229;28;20046;-66
2023/05/13 11:24:04;;;;;;;5.63;3.65;;;17.40;75.10;;;;;;4963522;28;20182;-61
2023/05/13 11:26:46;;;;;;;3.53;3.15;;;17.20;74.50;;;;;;4959402;28;20054;-65
2023/05/13 11:29:13;;;;;;;5.80;3.70;;;17.10;73.40;;;;;;4962156;28;20101;-61
2023/05/13 11:31:47;;;;;;;9.68;4.53;;;17.20;75.40;;;;;;4962253;28;20157;-71
2023/05/13 11:34:16;;;;;;;6.00;3.80;;;17.40;75.40;;;;;;4962020;28;20055;-68
2023/05/13 11:36:45;;;;;;;5.75;3.80;;;17.40;76.00;;;;;;4962415;28;20762;-62
2023/05/13 11:39:17;;;;;;;5.43;3.67;;;17.30;77.60;;;;;;4954993;28;20134;-64
2023/05/13 11:41:51;;;;;;;4.35;3.10;;;17.40;78.10;;;;;;4958277;28;20073;-62
2023/05/13 11:44:20;;;;;;;7.88;4.10;;;17.40;76.80;;;;;;4959507;28;20051;-65
2023/05/13 11:46:59;;;;;;;8.55;4.25;;;17.70;77.00;;;;;;4953973;28;20055;-67
2023/05/13 11:49:47;;;;;;;5.80;3.30;;;17.80;76.40;;;;;;4965147;28;20149;-62
2023/05/13 11:52:16;;;;;;;5.05;4.65;;;18.00;77.00;;;;;;4959617;28;20055;-61
2023/05/13 11:54:51;;;;;;;5.53;3.15;;;18.00;75.50;;;;;;4972851;28;20042;-62
2023/05/13 11:57:27;;;;;;;8.15;3.05;;;18.20;76.90;;;;;;4963216;28;20093;-61
2023/05/13 11:59:58;;;;;;;5.57;3.28;;;18.40;74.80;;;;;;4954575;28;20513;-61
2023/05/13 12:02:29;;;;;;;5.60;3.17;;;18.40;74.60;;;;;;4954243;28;20505;-66
2023/05/13 12:05:05;;;;;;;5.05;3.00;;;18.50;73.50;;;;;;4944340;28;20055;-61
2023/05/13 12:07:33;;;;;;;4.25;3.58;;;18.30;73.80;;;;;;4953841;28;20485;-64
2023/05/13 12:10:02;;;;;;;3.30;3.00;;;18.30;73.00;;;;;;4947137;28;20079;-71
2023/05/13 12:12:32;;;;;;;4.20;3.15;;;18.60;72.80;;;;;;4957456;28;20055;-65
2023/05/13 12:15:01;;;;;;;5.40;3.58;;;18.60;70.90;;;;;;4957484;28;21817;-68
2023/05/13 12:17:30;;;;;;;5.63;3.92;;;18.10;71.10;;;;;;4951651;28;20114;-63
2023/05/13 12:20:16;;;;;;;4.35;3.58;;;18.00;71.20;;;;;;4954391;28;20047;-61
2023/05/13 12:22:43;;;;;;;3.78;3.05;;;17.80;72.50;;;;;;4960998;28;20050;-70
2023/05/13 12:25:35;;;;;;;4.72;4.10;;;18.00;73.50;;;;;;4942715;28;20134;-63
2023/05/13 12:28:22;;;;;;;4.20;3.80;;;17.80;73.60;;;;;;4957137;28;20420;-65
2023/05/13 12:30:55;;;;;;;6.53;3.53;;;17.70;74.50;;;;;;4955869;28;20054;-72
2023/05/13 12:33:25;;;;;;;5.95;3.72;;;17.80;74.00;;;;;;4959259;28;20050;-67
2023/05/13 12:35:54;;;;;;;3.55;3.17;;;18.00;74.40;;;;;;4964165;28;20051;-62
2023/05/13 12:38:23;;;;;;;5.25;3.20;;;17.80;74.50;;;;;;4956956;28;20055;-61
2023/05/13 12:40:51;;;;;;;4.63;3.63;;;18.00;75.10;;;;;;4952030;28;20051;-64
2023/05/13 12:43:19;;;;;;;5.20;3.10;;;18.30;74.10;;;;;;4965443;28;20059;-64
2023/05/13 12:45:50;;;;;;;9.75;3.08;;;18.60;73.50;;;;;;4961107;28;20610;-62
2023/05/13 12:48:22;;;;;;;3.28;2.97;;;18.30;72.20;;;;;;4950879;28;20078;-67
2023/05/13 12:50:49;;;;;;;3.25;3.03;;;18.70;71.20;;;;;;4958432;28;20145;-65
2023/05/13 12:53:16;;;;;;;4.68;2.95;;;19.00;71.80;;;;;;4959938;28;20063;-63
2023/05/13 12:55:43;;;;;;;6.65;3.40;;;19.00;71.70;;;;;;4955169;28;20047;-70
2023/05/13 12:58:10;;;;;;;10.48;3.88;;;19.00;71.70;;;;;;4952823;28;20047;-63
2023/05/13 13:00:37;;;;;;;6.30;3.65;;;18.70;72.90;;;;;;4961327;28;20563;-62